Time;durP1;ratioP1;P1;durP2;ratioP2;P2;SDS_P1;SDS_P2;PMS_P1;PMS_P2;Temp;Humidity;BMP_temperature;BMP_pressure;BME280_temperature;BME280_humidity;BME280_pressure;Samples;Min_cycle;Max_cycle;Signal;HPM_P1;HPM_P2
2022/07/15 00:01:13;;;;;;;11.60;2.40;;;15.20;99.90;;;;;;5052236;28;20188;-76
2022/07/15 00:03:38;;;;;;;6.70;2.10;;;15.50;99.90;;;;;;5052063;28;20189;-77
2022/07/15 00:06:04;;;;;;;10.60;2.33;;;15.20;99.90;;;;;;5052566;28;20241;-77
2022/07/15 00:08:30;;;;;;;7.87;2.07;;;15.10;99.90;;;;;;5087952;23;20705;-79
2022/07/15 00:10:55;;;;;;;8.43;2.00;;;15.10;99.90;;;;;;5072565;28;20165;-80
2022/07/15 00:13:23;;;;;;;6.33;2.27;;;15.20;99.90;;;;;;5074257;28;20161;-79
2022/07/15 00:15:49;;;;;;;7.23;1.90;;;15.30;99.90;;;;;;5073384;28;20188;-79
2022/07/15 00:18:14;;;;;;;11.13;2.30;;;15.40;99.90;;;;;;5074549;28;20638;-79
2022/07/15 00:20:40;;;;;;;12.40;2.50;;;15.10;99.90;;;;;;5068119;23;20228;-77
2022/07/15 00:23:07;;;;;;;15.10;2.53;;;15.10;99.90;;;;;;5051888;28;20189;-77
2022/07/15 00:25:34;;;;;;;7.43;2.20;;;15.00;99.90;;;;;;5052215;28;20170;-77
2022/07/15 00:28:06;;;;;;;9.30;2.10;;;15.20;99.90;;;;;;5052210;28;20617;-77
2022/07/15 00:30:38;;;;;;;8.80;2.30;;;15.30;99.90;;;;;;5051713;28;20173;-77
2022/07/15 00:33:04;;;;;;;12.33;2.80;;;14.90;99.90;;;;;;5051364;28;20280;-77
2022/07/15 00:35:31;;;;;;;7.40;2.60;;;14.90;99.90;;;;;;5051593;28;20259;-77
2022/07/15 00:37:57;;;;;;;6.83;1.90;;;14.70;99.90;;;;;;5051568;28;20205;-77
2022/07/15 00:40:23;;;;;;;11.67;2.20;;;14.80;99.90;;;;;;5051739;28;20569;-77
2022/07/15 00:42:49;;;;;;;8.23;2.70;;;14.60;99.90;;;;;;5051499;28;20719;-77
2022/07/15 00:45:17;;;;;;;16.57;2.27;;;14.80;99.90;;;;;;5051565;28;20173;-77
2022/07/15 00:47:48;;;;;;;9.80;2.50;;;14.60;99.90;;;;;;5051512;28;20246;-77
2022/07/15 00:50:16;;;;;;;11.57;2.30;;;14.80;99.90;;;;;;5051269;28;20661;-77
2022/07/15 00:52:45;;;;;;;11.37;2.67;;;14.70;99.90;;;;;;5050917;28;20174;-77
2022/07/15 00:55:12;;;;;;;13.97;2.37;;;14.80;99.90;;;;;;5050728;28;20664;-77
2022/07/15 00:57:44;;;;;;;9.63;2.33;;;14.80;99.90;;;;;;5051063;28;20795;-77
2022/07/15 01:00:12;;;;;;;7.20;2.47;;;14.70;99.90;;;;;;5052444;28;20162;-77
2022/07/15 01:02:50;;;;;;;7.60;2.47;;;14.70;99.90;;;;;;5050950;28;20169;-77
2022/07/15 01:05:18;;;;;;;7.20;2.27;;;14.60;99.90;;;;;;5051289;28;20160;-77
2022/07/15 01:07:44;;;;;;;12.50;2.40;;;14.70;99.90;;;;;;5051038;28;20177;-77
2022/07/15 01:10:10;;;;;;;11.80;2.53;;;14.80;99.90;;;;;;5050890;28;20231;-77
2022/07/15 01:12:42;;;;;;;8.47;2.30;;;14.50;99.90;;;;;;5050903;28;20177;-77
2022/07/15 01:15:09;;;;;;;10.87;2.63;;;14.60;99.90;;;;;;5051100;28;20177;-77
2022/07/15 01:17:35;;;;;;;10.70;2.30;;;14.50;99.90;;;;;;5051124;28;20200;-77
2022/07/15 01:20:01;;;;;;;11.60;2.60;;;14.30;99.90;;;;;;5050912;28;20208;-77
2022/07/15 01:22:27;;;;;;;11.40;2.50;;;14.40;99.90;;;;;;5050788;28;20541;-77
2022/07/15 01:24:53;;;;;;;9.00;2.80;;;14.30;99.90;;;;;;5051043;28;20282;-77
2022/07/15 01:27:20;;;;;;;12.33;2.40;;;14.20;99.90;;;;;;5050905;28;20641;-77
2022/07/15 01:29:46;;;;;;;11.73;2.40;;;14.20;99.90;;;;;;5050935;28;20199;-77
2022/07/15 01:32:12;;;;;;;7.67;2.80;;;14.40;99.90;;;;;;5050778;28;20176;-77
2022/07/15 01:34:37;;;;;;;5.00;2.30;;;14.20;99.90;;;;;;5050691;28;20703;-77
2022/07/15 01:37:03;;;;;;;11.67;2.63;;;14.10;99.90;;;;;;5050730;28;20589;-77
2022/07/15 01:39:29;;;;;;;8.33;2.30;;;14.00;99.90;;;;;;5050619;28;20177;-77
2022/07/15 01:41:54;;;;;;;11.83;2.50;;;14.10;99.90;;;;;;5050670;28;20180;-77
2022/07/15 01:44:20;;;;;;;11.20;2.57;;;14.40;99.90;;;;;;5050698;28;20196;-77
2022/07/15 01:46:46;;;;;;;10.20;2.67;;;14.30;99.90;;;;;;5051053;28;20178;-77
2022/07/15 01:49:26;;;;;;;11.87;2.60;;;14.00;99.90;;;;;;5050887;28;20168;-77
2022/07/15 01:51:54;;;;;;;10.27;2.50;;;14.00;99.90;;;;;;5050573;28;20173;-77
2022/07/15 01:54:21;;;;;;;6.67;2.17;;;13.90;99.90;;;;;;5050183;28;20272;-77
2022/07/15 01:56:48;;;;;;;13.27;2.67;;;14.00;99.90;;;;;;5050616;28;20172;-77
2022/07/15 01:59:13;;;;;;;11.50;2.57;;;13.90;99.90;;;;;;5050852;28;20200;-77
2022/07/15 02:01:39;;;;;;;6.83;2.70;;;14.10;99.90;;;;;;5050193;28;20645;-77
2022/07/15 02:04:05;;;;;;;11.10;2.93;;;14.00;99.90;;;;;;5050176;28;20199;-77
2022/07/15 02:06:31;;;;;;;9.10;3.00;;;13.80;99.90;;;;;;5050147;28;20177;-77
2022/07/15 02:08:56;;;;;;;7.83;2.70;;;14.00;99.90;;;;;;5052783;28;20177;-77
2022/07/15 02:11:22;;;;;;;5.67;2.80;;;13.70;99.90;;;;;;5053735;28;20169;-77
2022/07/15 02:13:48;;;;;;;11.87;3.07;;;13.70;99.90;;;;;;5053953;28;20211;-77
2022/07/15 02:16:14;;;;;;;10.97;2.80;;;13.70;99.90;;;;;;5053873;28;20226;-77
2022/07/15 02:18:39;;;;;;;12.70;3.03;;;13.50;99.90;;;;;;5053982;28;20208;-77
2022/07/15 02:21:05;;;;;;;7.93;3.23;;;13.60;99.90;;;;;;5053779;28;20185;-77
2022/07/15 02:23:31;;;;;;;9.93;3.20;;;13.60;99.90;;;;;;5053947;28;20284;-77
2022/07/15 02:25:56;;;;;;;9.07;2.90;;;13.40;99.90;;;;;;5054212;28;20171;-77
2022/07/15 02:28:23;;;;;;;5.83;2.53;;;13.30;99.90;;;;;;5054110;28;20227;-77
2022/07/15 02:30:48;;;;;;;10.00;3.00;;;13.20;99.90;;;;;;5053508;28;20220;-77
2022/07/15 02:33:14;;;;;;;10.90;2.80;;;13.30;99.90;;;;;;5053579;28;20643;-76
2022/07/15 02:35:42;;;;;;;7.40;2.67;;;13.30;99.90;;;;;;5053706;28;20170;-77
2022/07/15 02:38:07;;;;;;;11.63;3.00;;;13.40;99.90;;;;;;5053828;28;20566;-77
2022/07/15 02:40:33;;;;;;;6.80;2.70;;;13.20;99.90;;;;;;5053745;28;20183;-77
2022/07/15 02:43:00;;;;;;;8.77;3.07;;;13.40;99.90;;;;;;5053360;28;20511;-77
2022/07/15 02:45:28;;;;;;;9.03;2.77;;;13.30;99.90;;;;;;5053932;28;20538;-77
2022/07/15 02:47:54;;;;;;;6.60;2.73;;;13.50;99.90;;;;;;5053506;28;20169;-77
2022/07/15 02:50:21;;;;;;;12.60;2.90;;;13.40;99.90;;;;;;5053392;28;20186;-76
2022/07/15 02:52:47;;;;;;;5.80;2.63;;;13.50;99.90;;;;;;5053410;28;20271;-76
2022/07/15 02:55:14;;;;;;;10.57;3.07;;;13.40;99.90;;;;;;5053297;28;20263;-77
2022/07/15 02:57:40;;;;;;;6.33;3.13;;;13.40;99.90;;;;;;5053293;28;20193;-77
2022/07/15 03:00:11;;;;;;;8.20;3.10;;;13.40;99.90;;;;;;5053384;28;20173;-77
2022/07/15 03:02:37;;;;;;;10.23;2.77;;;13.30;99.90;;;;;;5053157;28;20670;-77
2022/07/15 03:05:03;;;;;;;7.97;3.10;;;13.10;99.90;;;;;;5053191;28;20713;-77
2022/07/15 03:07:29;;;;;;;6.30;2.77;;;13.30;99.90;;;;;;5053208;28;20185;-77
2022/07/15 03:09:55;;;;;;;7.47;2.57;;;13.20;99.90;;;;;;5053720;28;20306;-77
2022/07/15 03:12:21;;;;;;;8.23;2.97;;;13.40;99.90;;;;;;5053140;28;20172;-77
2022/07/15 03:14:46;;;;;;;7.07;3.23;;;13.20;99.90;;;;;;5053274;28;20202;-77
2022/07/15 03:17:12;;;;;;;11.33;3.40;;;13.30;99.90;;;;;;5053102;28;20194;-77
2022/07/15 03:19:38;;;;;;;11.33;3.40;;;13.10;99.90;;;;;;5051694;28;20179;-77
2022/07/15 03:22:04;;;;;;;11.73;3.37;;;13.00;99.90;;;;;;5052903;28;20515;-77
2022/07/15 03:24:29;;;;;;;8.10;3.13;;;13.10;99.90;;;;;;5054056;28;20555;-77
2022/07/15 03:26:55;;;;;;;6.27;3.03;;;13.10;99.90;;;;;;5052766;28;20623;-77
2022/07/15 03:29:21;;;;;;;5.30;2.77;;;13.00;99.90;;;;;;5052758;28;20184;-77
2022/07/15 03:31:46;;;;;;;13.63;3.30;;;13.00;99.90;;;;;;5052414;28;20691;-77
2022/07/15 03:34:12;;;;;;;9.40;3.47;;;13.00;99.90;;;;;;5052550;28;20281;-77
2022/07/15 03:36:39;;;;;;;8.77;3.43;;;13.10;99.90;;;;;;5052703;28;20199;-76
2022/07/15 03:39:05;;;;;;;13.30;3.47;;;12.80;99.90;;;;;;5052590;28;20226;-77
2022/07/15 03:41:31;;;;;;;6.70;2.70;;;12.90;99.90;;;;;;5053617;28;20165;-77
2022/07/15 03:43:56;;;;;;;10.40;3.20;;;13.00;99.90;;;;;;5052643;28;20285;-77
2022/07/15 03:46:22;;;;;;;12.10;3.43;;;12.90;99.90;;;;;;5052904;28;20173;-77
2022/07/15 03:48:49;;;;;;;8.57;2.90;;;12.70;99.90;;;;;;5052316;28;20174;-77
2022/07/15 03:51:15;;;;;;;11.57;3.53;;;12.70;99.90;;;;;;5052365;28;20176;-77
2022/07/15 03:53:41;;;;;;;8.20;3.30;;;12.60;99.90;;;;;;5052302;28;20667;-77
2022/07/15 03:56:07;;;;;;;6.63;3.00;;;12.60;99.90;;;;;;5051899;28;20182;-76
2022/07/15 03:58:33;;;;;;;10.50;3.47;;;12.70;99.90;;;;;;5052143;28;20210;-76
2022/07/15 04:00:59;;;;;;;12.87;3.37;;;12.50;99.90;;;;;;5052111;28;20174;-77
2022/07/15 04:03:25;;;;;;;10.97;3.03;;;12.50;99.90;;;;;;5051901;28;20201;-76
2022/07/15 04:05:50;;;;;;;14.17;3.20;;;12.60;99.90;;;;;;5052081;28;20187;-76
2022/07/15 04:08:16;;;;;;;12.00;2.90;;;12.40;99.90;;;;;;5052161;28;20276;-76
2022/07/15 04:10:41;;;;;;;11.83;3.23;;;12.40;99.90;;;;;;5051989;28;20181;-77
2022/07/15 04:13:07;;;;;;;6.90;3.07;;;12.60;99.90;;;;;;5051779;28;20197;-76
2022/07/15 04:15:33;;;;;;;14.93;3.27;;;12.50;99.90;;;;;;5051906;28;20180;-76
2022/07/15 04:17:58;;;;;;;6.40;3.00;;;12.50;99.90;;;;;;5051800;28;20200;-76
2022/07/15 04:20:25;;;;;;;9.93;3.30;;;12.50;99.90;;;;;;5051661;28;20275;-77
2022/07/15 04:22:51;;;;;;;8.47;3.10;;;12.50;99.90;;;;;;5051551;28;20526;-76
2022/07/15 04:25:20;;;;;;;5.93;2.90;;;12.60;99.90;;;;;;5051783;28;20196;-76
2022/07/15 04:27:47;;;;;;;12.23;3.07;;;12.70;99.90;;;;;;5051681;28;20173;-76
2022/07/15 04:30:14;;;;;;;7.07;2.87;;;12.80;99.90;;;;;;5051009;28;20182;-76
2022/07/15 04:32:40;;;;;;;10.33;3.43;;;12.70;99.90;;;;;;5051219;28;20185;-76
2022/07/15 04:35:06;;;;;;;11.97;3.17;;;12.70;99.90;;;;;;5051465;28;20194;-76
2022/07/15 04:37:32;;;;;;;9.00;3.30;;;12.80;99.90;;;;;;5051405;28;20201;-76
2022/07/15 04:39:57;;;;;;;7.40;3.10;;;12.90;99.90;;;;;;5051449;28;20176;-76
2022/07/15 04:42:23;;;;;;;12.37;3.60;;;12.90;99.90;;;;;;5051351;28;20516;-77
2022/07/15 04:44:49;;;;;;;8.40;3.03;;;13.00;99.90;;;;;;5051159;28;20201;-76
2022/07/15 04:47:15;;;;;;;10.23;4.00;;;13.10;99.90;;;;;;5051303;28;20182;-77
2022/07/15 04:52:25;;;;;;;11.83;3.43;;;13.20;99.90;;;;;;5052588;28;20561;-77
2022/07/15 04:54:51;;;;;;;11.40;3.30;;;13.30;99.90;;;;;;5050602;28;20194;-77
2022/07/15 04:57:17;;;;;;;10.70;3.10;;;13.40;99.90;;;;;;5051059;28;20267;-77
2022/07/15 04:59:43;;;;;;;11.13;3.20;;;13.50;99.90;;;;;;5051253;28;20534;-77
2022/07/15 05:02:09;;;;;;;5.37;2.97;;;13.50;99.90;;;;;;5051032;28;20172;-77
2022/07/15 05:04:35;;;;;;;13.40;3.43;;;13.70;99.90;;;;;;5050930;28;20188;-77
2022/07/15 05:07:00;;;;;;;9.80;3.30;;;13.70;99.90;;;;;;5051117;28;20179;-79
2022/07/15 05:09:27;;;;;;;9.90;3.20;;;13.80;99.90;;;;;;5050965;28;20173;-80
2022/07/15 05:11:52;;;;;;;11.57;3.00;;;13.90;99.90;;;;;;5050944;28;20176;-77
2022/07/15 05:14:18;;;;;;;10.37;3.20;;;13.90;99.90;;;;;;5051959;28;20189;-78
2022/07/15 05:16:44;;;;;;;5.43;2.53;;;14.00;99.90;;;;;;5052328;28;20205;-78
2022/07/15 05:19:09;;;;;;;10.27;2.97;;;14.20;99.90;;;;;;5051604;28;20211;-78
2022/07/15 05:21:35;;;;;;;13.30;2.53;;;14.50;99.90;;;;;;5052815;28;20181;-78
2022/07/15 05:24:01;;;;;;;8.87;3.00;;;14.50;99.90;;;;;;5054154;28;20223;-79
2022/07/15 05:26:26;;;;;;;13.70;3.30;;;14.60;99.90;;;;;;5056219;28;20184;-80
2022/07/15 05:28:52;;;;;;;9.07;3.17;;;14.70;99.90;;;;;;5054418;28;20181;-79
2022/07/15 05:31:18;;;;;;;13.20;3.53;;;14.60;99.90;;;;;;5050812;28;20632;-78
2022/07/15 05:33:43;;;;;;;11.00;2.90;;;14.80;99.90;;;;;;5050917;28;20600;-78
2022/07/15 05:36:13;;;;;;;8.60;2.30;;;14.70;99.90;;;;;;5051278;28;20205;-80
2022/07/15 05:38:40;;;;;;;10.67;2.67;;;14.80;99.90;;;;;;5050964;28;20669;-80
2022/07/15 05:41:05;;;;;;;10.90;2.43;;;14.90;99.90;;;;;;5050036;28;20165;-78
2022/07/15 05:43:31;;;;;;;13.37;2.70;;;15.00;99.90;;;;;;5052833;28;20239;-78
2022/07/15 05:45:57;;;;;;;8.20;2.00;;;15.10;99.90;;;;;;5055016;28;20633;-80
2022/07/15 05:48:22;;;;;;;11.30;2.87;;;15.20;99.90;;;;;;5054939;28;20184;-78
2022/07/15 05:50:49;;;;;;;14.33;2.30;;;15.20;99.90;;;;;;5054982;28;20260;-79
2022/07/15 05:53:15;;;;;;;7.20;2.03;;;15.40;99.90;;;;;;5054595;28;20193;-78
2022/07/15 05:55:41;;;;;;;8.93;2.30;;;15.40;99.90;;;;;;5054646;28;20514;-78
2022/07/15 05:58:07;;;;;;;10.00;2.00;;;15.60;99.90;;;;;;5054702;28;20212;-79
2022/07/15 06:00:34;;;;;;;14.17;2.13;;;15.60;99.90;;;;;;5054917;28;20710;-79
2022/07/15 06:02:59;;;;;;;9.50;2.40;;;16.10;99.90;;;;;;5054545;28;20154;-79
2022/07/15 06:05:25;;;;;;;9.20;1.97;;;16.20;99.90;;;;;;5054930;28;20170;-79
2022/07/15 06:10:20;;;;;;;11.90;2.17;;;16.40;99.90;;;;;;5034231;28;20222;-79
2022/07/15 06:12:46;;;;;;;13.33;2.27;;;16.40;99.90;;;;;;5036112;28;20170;-80
2022/07/15 06:15:11;;;;;;;6.70;1.80;;;16.40;99.90;;;;;;5036633;28;20174;-80
2022/07/15 06:17:37;;;;;;;4.90;1.70;;;16.40;99.90;;;;;;5034284;28;20579;-80
2022/07/15 06:20:04;;;;;;;12.10;2.10;;;16.40;99.90;;;;;;5035852;28;20232;-80
2022/07/15 06:22:30;;;;;;;10.37;2.63;;;16.40;99.90;;;;;;5037317;28;20166;-80
2022/07/15 06:24:55;;;;;;;10.50;1.90;;;16.70;99.90;;;;;;5046248;22;20244;-82
2022/07/15 06:27:21;;;;;;;13.07;2.33;;;16.80;99.90;;;;;;5036142;28;20269;-81
2022/07/15 06:29:48;;;;;;;11.87;2.40;;;17.00;99.90;;;;;;5037117;28;20213;-83
2022/07/15 06:32:14;;;;;;;9.10;2.00;;;17.70;99.90;;;;;;5041117;28;20185;-83
2022/07/15 06:34:40;;;;;;;6.15;2.13;;;18.00;99.90;;;;;;5039885;28;20205;-82
2022/07/15 06:37:05;;;;;;;7.13;1.88;;;18.40;99.90;;;;;;5054910;28;20177;-81
2022/07/15 06:39:34;;;;;;;5.93;1.83;;;18.70;99.90;;;;;;5060364;28;20174;-82
2022/07/15 06:42:01;;;;;;;10.52;2.28;;;18.80;99.90;;;;;;5060575;28;20174;-83
2022/07/15 06:44:26;;;;;;;5.40;1.80;;;19.30;99.90;;;;;;5060307;28;20254;-82
2022/07/15 06:46:52;;;;;;;7.28;1.80;;;19.80;99.90;;;;;;5060014;28;20509;-83
2022/07/15 06:49:18;;;;;;;7.32;1.75;;;20.00;99.90;;;;;;5060482;28;20309;-82
2022/07/15 06:51:44;;;;;;;7.30;1.77;;;19.90;99.90;;;;;;5060002;28;20278;-82
2022/07/15 06:54:11;;;;;;;4.57;1.55;;;20.20;99.90;;;;;;5060199;28;20196;-80
2022/07/15 06:56:37;;;;;;;7.05;1.67;;;19.90;99.90;;;;;;5059478;28;20169;-80
2022/07/15 06:59:03;;;;;;;6.75;1.42;;;20.40;99.90;;;;;;5059780;28;20702;-80
2022/07/15 07:01:29;;;;;;;9.75;1.42;;;20.10;99.50;;;;;;5059540;28;20196;-80
2022/07/15 07:03:55;;;;;;;6.30;1.65;;;20.80;99.30;;;;;;5057501;28;20186;-81
2022/07/15 07:06:22;;;;;;;9.00;1.80;;;21.00;98.60;;;;;;5057295;28;20166;-81
2022/07/15 07:08:48;;;;;;;7.85;1.98;;;21.00;97.70;;;;;;5056933;28;20307;-81
2022/07/15 07:11:15;;;;;;;7.38;1.70;;;21.50;97.50;;;;;;5056368;28;20185;-83
2022/07/15 07:13:41;;;;;;;5.32;2.03;;;21.00;96.50;;;;;;5057870;28;20221;-82
2022/07/15 07:16:07;;;;;;;6.32;1.65;;;20.80;97.20;;;;;;5058441;28;20173;-80
2022/07/15 07:18:33;;;;;;;5.90;1.50;;;21.20;96.70;;;;;;5043604;28;20190;-81
2022/07/15 07:20:59;;;;;;;8.88;2.05;;;21.50;96.50;;;;;;5038118;28;20193;-83
2022/07/15 07:23:26;;;;;;;5.80;1.77;;;22.20;96.10;;;;;;5034690;28;20213;-80
2022/07/15 07:25:55;;;;;;;4.07;1.38;;;22.10;94.90;;;;;;5040137;28;20174;-80
2022/07/15 07:28:20;;;;;;;6.90;1.30;;;21.70;94.90;;;;;;5041306;28;20181;-80
2022/07/15 07:30:49;;;;;;;5.93;1.55;;;21.30;95.20;;;;;;5040345;28;20174;-81
2022/07/15 07:33:15;;;;;;;7.32;1.50;;;21.70;94.20;;;;;;5037620;28;20198;-80
2022/07/15 07:35:42;;;;;;;3.67;1.20;;;22.20;93.70;;;;;;5038180;28;20176;-80
2022/07/15 07:38:09;;;;;;;4.30;1.40;;;21.50;93.10;;;;;;5036784;28;20194;-80
2022/07/15 07:40:34;;;;;;;3.95;1.15;;;21.60;93.00;;;;;;5026726;28;20219;-80
2022/07/15 07:43:00;;;;;;;2.78;1.10;;;22.20;92.00;;;;;;5022528;28;20643;-79
2022/07/15 07:45:28;;;;;;;4.07;1.20;;;22.00;91.10;;;;;;5025951;28;20171;-79
2022/07/15 07:47:57;;;;;;;3.90;1.23;;;22.30;91.30;;;;;;5025471;28;20174;-79
2022/07/15 07:50:23;;;;;;;3.10;1.30;;;22.70;90.70;;;;;;5023584;28;20167;-79
2022/07/15 07:52:48;;;;;;;3.33;1.15;;;22.40;90.70;;;;;;5025575;28;20232;-79
2022/07/15 07:55:17;;;;;;;3.88;1.67;;;22.50;89.70;;;;;;5024801;28;20213;-79
2022/07/15 07:57:55;;;;;;;3.55;1.00;;;22.30;91.10;;;;;;5023854;28;20213;-80
2022/07/15 08:00:22;;;;;;;4.13;1.10;;;22.50;90.30;;;;;;5029004;28;20242;-79
2022/07/15 08:02:48;;;;;;;5.55;1.35;;;22.80;89.80;;;;;;5025262;28;20555;-80
2022/07/15 08:05:15;;;;;;;3.88;1.05;;;23.00;88.10;;;;;;5025975;28;20162;-81
2022/07/15 08:07:41;;;;;;;4.80;1.40;;;23.50;84.80;;;;;;5027212;28;20638;-81
2022/07/15 08:10:09;;;;;;;4.03;1.17;;;23.50;85.80;;;;;;5018884;28;20179;-81
2022/07/15 08:12:37;;;;;;;2.38;1.10;;;22.60;88.70;;;;;;5023816;28;20634;-80
2022/07/15 08:15:04;;;;;;;3.70;1.10;;;22.90;84.50;;;;;;5031309;28;20278;-81
2022/07/15 08:17:30;;;;;;;2.70;1.17;;;23.10;85.80;;;;;;5030148;28;20539;-80
2022/07/15 08:19:56;;;;;;;4.75;1.20;;;23.40;86.40;;;;;;5033266;28;20170;-80
2022/07/15 08:22:22;;;;;;;6.20;1.45;;;23.20;85.80;;;;;;5032589;28;20219;-81
2022/07/15 08:24:49;;;;;;;2.75;1.17;;;22.90;86.60;;;;;;5033009;28;20205;-81
2022/07/15 08:27:15;;;;;;;4.68;1.35;;;22.60;87.30;;;;;;5031169;28;20263;-80
2022/07/15 08:29:41;;;;;;;2.42;1.23;;;23.00;87.20;;;;;;5032647;28;20181;-80
2022/07/15 08:32:07;;;;;;;3.20;1.00;;;22.70;87.30;;;;;;5035691;28;20170;-81
2022/07/15 08:34:32;;;;;;;5.20;1.25;;;23.70;85.90;;;;;;5069341;28;20194;-81
2022/07/15 08:36:58;;;;;;;5.60;1.38;;;23.80;84.60;;;;;;5036308;28;20618;-81
2022/07/15 08:39:24;;;;;;;3.17;0.98;;;22.80;83.70;;;;;;5035629;28;20236;-80
2022/07/15 08:41:52;;;;;;;4.15;0.95;;;22.70;85.50;;;;;;5036124;28;20178;-79
2022/07/15 08:44:17;;;;;;;3.42;1.08;;;22.50;83.10;;;;;;5037694;28;20190;-80
2022/07/15 08:46:47;;;;;;;3.40;1.30;;;22.60;84.50;;;;;;5037346;28;20204;-79
2022/07/15 08:49:17;;;;;;;7.05;1.27;;;22.90;83.70;;;;;;5037062;28;20185;-79
2022/07/15 08:51:44;;;;;;;3.97;1.23;;;23.10;83.70;;;;;;5036840;28;20561;-80
2022/07/15 08:54:11;;;;;;;3.13;1.27;;;23.80;83.30;;;;;;5036506;28;20198;-80
2022/07/15 08:56:37;;;;;;;3.03;1.10;;;23.70;83.00;;;;;;5035649;28;20547;-80
2022/07/15 08:59:04;;;;;;;2.63;1.00;;;23.60;80.20;;;;;;5036463;28;20208;-80
2022/07/15 09:01:30;;;;;;;3.65;1.08;;;23.30;81.10;;;;;;5036918;28;20559;-80
2022/07/15 09:03:57;;;;;;;4.15;0.95;;;22.80;82.70;;;;;;5036297;28;20252;-80
2022/07/15 09:06:34;;;;;;;2.75;1.20;;;22.50;82.80;;;;;;5036788;28;20193;-80
2022/07/15 09:09:26;;;;;;;5.15;1.00;;;21.70;83.30;;;;;;5037352;28;20181;-80
2022/07/15 09:11:59;;;;;;;4.50;1.15;;;22.50;82.10;;;;;;5069879;28;20184;-80
2022/07/15 09:14:28;;;;;;;4.38;1.38;;;23.60;80.50;;;;;;5070852;28;20197;-80
2022/07/15 09:17:08;;;;;;;4.85;1.50;;;22.60;81.10;;;;;;5036646;28;20252;-80
2022/07/15 09:20:02;;;;;;;1.42;0.98;;;22.10;83.20;;;;;;5070163;28;20181;-80
2022/07/15 09:22:30;;;;;;;4.35;1.25;;;22.60;83.80;;;;;;5070040;28;20170;-79
2022/07/15 09:25:08;;;;;;;2.08;1.08;;;23.00;82.90;;;;;;5035619;28;20205;-79
2022/07/15 09:27:38;;;;;;;4.85;1.23;;;23.40;81.30;;;;;;5036714;28;20177;-79
2022/07/15 09:33:38;;;;;;;2.70;0.95;;;23.70;79.10;;;;;;5037721;28;20212;-80
2022/07/15 09:36:32;;;;;;;2.80;1.00;;;22.90;78.20;;;;;;5036532;28;20174;-80
2022/07/15 09:39:04;;;;;;;3.22;1.08;;;22.50;78.30;;;;;;5035460;28;20241;-80
2022/07/15 09:41:35;;;;;;;2.45;1.30;;;22.10;80.40;;;;;;5036404;28;20660;-79
2022/07/15 09:44:03;;;;;;;4.22;1.10;;;21.80;81.40;;;;;;5070203;28;20595;-79
2022/07/15 09:46:41;;;;;;;4.68;1.27;;;21.60;82.80;;;;;;5035996;28;20166;-79
2022/07/15 09:49:08;;;;;;;3.70;1.20;;;22.30;82.00;;;;;;5069777;28;20177;-79
2022/07/15 09:51:43;;;;;;;3.90;1.05;;;22.70;80.90;;;;;;5036501;28;20573;-80
2022/07/15 09:54:12;;;;;;;3.50;1.40;;;22.20;81.80;;;;;;5036195;28;20208;-80
2022/07/15 09:56:38;;;;;;;1.92;1.08;;;22.10;80.30;;;;;;5036181;28;20170;-79
2022/07/15 09:59:04;;;;;;;3.92;0.93;;;22.00;79.50;;;;;;5035505;28;20212;-80
2022/07/15 10:01:30;;;;;;;2.67;1.00;;;21.90;82.50;;;;;;5034211;28;20709;-80
2022/07/15 10:03:57;;;;;;;2.95;1.05;;;22.80;82.50;;;;;;5033274;28;20281;-80
2022/07/15 10:06:26;;;;;;;3.03;1.00;;;22.40;81.10;;;;;;5033192;28;20205;-80
2022/07/15 10:08:53;;;;;;;3.05;0.95;;;22.20;82.90;;;;;;5034485;28;20212;-80
2022/07/15 10:11:20;;;;;;;2.42;0.90;;;21.90;82.30;;;;;;5035102;28;20173;-80
2022/07/15 10:14:17;;;;;;;2.13;1.17;;;22.30;82.30;;;;;;5034289;28;20204;-80
2022/07/15 10:17:01;;;;;;;1.35;0.77;;;22.30;82.20;;;;;;5068674;28;20723;-80
2022/07/15 10:19:54;;;;;;;0.93;0.75;;;22.80;80.00;;;;;;5068311;28;20244;-80
2022/07/15 10:22:56;;;;;;;2.33;0.95;;;22.40;79.50;;;;;;5067907;28;20202;-80
2022/07/15 10:25:51;;;;;;;1.30;1.25;;;22.80;78.80;;;;;;5036797;28;20651;-80
2022/07/15 10:28:44;;;;;;;2.25;0.80;;;22.50;78.10;;;;;;5035726;28;20171;-79
2022/07/15 10:31:24;;;;;;;5.65;1.05;;;22.00;78.60;;;;;;5040100;28;20186;-79
2022/07/15 10:34:02;;;;;;;4.72;0.95;;;22.20;79.40;;;;;;5039718;28;20197;-79
2022/07/15 10:36:47;;;;;;;3.78;0.80;;;21.90;81.00;;;;;;5073417;28;20709;-79
2022/07/15 10:39:15;;;;;;;1.95;1.00;;;21.60;81.60;;;;;;5074644;28;20198;-79
2022/07/15 10:42:03;;;;;;;1.38;0.80;;;21.80;81.90;;;;;;5044332;28;20541;-79
2022/07/15 10:44:47;;;;;;;2.85;0.80;;;21.80;81.80;;;;;;5043694;28;20190;-79
2022/07/15 10:47:13;;;;;;;1.80;1.00;;;22.00;81.70;;;;;;5042155;28;20170;-79
2022/07/15 10:49:40;;;;;;;1.30;0.93;;;22.00;81.10;;;;;;5074774;28;20263;-81
2022/07/15 10:52:13;;;;;;;2.95;0.85;;;21.90;81.10;;;;;;5041859;28;20558;-81
2022/07/15 10:54:42;;;;;;;2.13;0.60;;;22.30;80.90;;;;;;5042347;28;20217;-79
2022/07/15 10:57:08;;;;;;;0.57;0.57;;;21.90;80.30;;;;;;5072338;28;20183;-79
2022/07/15 10:59:46;;;;;;;2.42;0.80;;;21.90;80.10;;;;;;5038037;28;20173;-79
2022/07/15 11:02:14;;;;;;;6.22;1.05;;;22.30;81.10;;;;;;5039192;28;20261;-80
2022/07/15 11:04:41;;;;;;;2.17;0.70;;;22.40;79.30;;;;;;5040163;28;20201;-80
2022/07/15 11:07:07;;;;;;;1.02;0.68;;;22.20;81.10;;;;;;5038875;28;20205;-79
2022/07/15 11:09:48;;;;;;;1.77;0.90;;;22.20;79.30;;;;;;5072847;28;20166;-80
2022/07/15 11:12:19;;;;;;;2.10;0.90;;;22.40;81.00;;;;;;5072194;28;20209;-79
2022/07/15 11:14:54;;;;;;;1.52;0.70;;;22.40;81.80;;;;;;5037580;28;20193;-78
2022/07/15 11:17:23;;;;;;;4.57;1.02;;;22.00;82.00;;;;;;5039326;28;20173;-79
2022/07/15 11:19:51;;;;;;;4.40;0.88;;;22.30;80.30;;;;;;5043552;28;20237;-79
2022/07/15 11:22:19;;;;;;;1.52;1.00;;;22.90;80.60;;;;;;5036801;28;20204;-79
2022/07/15 11:24:44;;;;;;;2.47;0.75;;;23.10;79.90;;;;;;5038493;28;20588;-81
2022/07/15 11:27:10;;;;;;;1.75;0.70;;;23.80;78.70;;;;;;5038652;28;20225;-80
2022/07/15 11:29:54;;;;;;;3.10;1.00;;;24.00;78.50;;;;;;5038649;28;20639;-81
2022/07/15 11:32:22;;;;;;;2.67;0.98;;;24.70;78.00;;;;;;5036764;28;20256;-81
2022/07/15 11:34:50;;;;;;;9.93;1.00;;;24.80;74.20;;;;;;5037199;28;20186;-80
2022/07/15 11:37:19;;;;;;;2.83;0.80;;;24.60;76.40;;;;;;5037651;28;20208;-81
2022/07/15 11:39:50;;;;;;;0.88;0.80;;;25.20;75.80;;;;;;5036378;28;20174;-82
2022/07/15 11:45:08;;;;;;;6.25;1.00;;;25.50;77.20;;;;;;5038781;28;20262;-81
2022/07/15 11:47:34;;;;;;;2.08;0.90;;;24.60;75.60;;;;;;5038905;28;20174;-81
2022/07/15 11:50:04;;;;;;;2.25;1.00;;;25.30;74.00;;;;;;5036528;28;20178;-82
2022/07/15 11:52:29;;;;;;;3.42;1.00;;;23.20;74.90;;;;;;5037718;28;20266;-82
2022/07/15 11:54:56;;;;;;;10.35;1.08;;;23.10;76.50;;;;;;5036986;28;20229;-80
2022/07/15 11:57:22;;;;;;;2.35;0.80;;;23.40;77.00;;;;;;5037479;28;20237;-81
2022/07/15 11:59:58;;;;;;;1.08;1.00;;;23.50;77.50;;;;;;5037746;28;20166;-82
2022/07/15 12:02:28;;;;;;;3.58;0.90;;;24.00;77.20;;;;;;5036389;28;20260;-80
2022/07/15 12:05:07;;;;;;;1.38;1.15;;;23.30;77.10;;;;;;5036698;28;20190;-81
2022/07/15 12:07:47;;;;;;;6.10;0.93;;;22.80;78.70;;;;;;5037837;28;20170;-81
2022/07/15 12:10:14;;;;;;;4.57;0.95;;;22.80;77.40;;;;;;5037950;28;20205;-79
2022/07/15 12:12:54;;;;;;;3.13;0.82;;;23.60;78.00;;;;;;5056914;22;20209;-81
2022/07/15 12:15:20;;;;;;;1.10;1.10;;;24.20;74.70;;;;;;5014620;28;20199;-79
2022/07/15 12:17:46;;;;;;;0.88;0.88;;;24.00;75.90;;;;;;5014880;28;20199;-82
2022/07/15 12:20:12;;;;;;;3.40;0.90;;;25.30;73.90;;;;;;5015662;28;20278;-81
2022/07/15 12:23:05;;;;;;;3.47;0.90;;;23.30;75.20;;;;;;5014443;28;20634;-81
2022/07/15 12:25:31;;;;;;;5.18;1.35;;;23.90;77.90;;;;;;5014357;28;20179;-82
2022/07/15 12:27:56;;;;;;;2.58;0.93;;;24.30;76.30;;;;;;5012892;28;20242;-81
2022/07/15 12:30:34;;;;;;;3.92;0.93;;;24.70;75.90;;;;;;5014679;28;20224;-81
2022/07/15 12:33:20;;;;;;;3.03;0.90;;;23.90;73.70;;;;;;5012774;28;20167;-81
2022/07/15 12:35:46;;;;;;;0.75;0.73;;;23.70;76.40;;;;;;5014278;28;20190;-81
2022/07/15 12:38:26;;;;;;;1.58;0.80;;;24.30;75.50;;;;;;5014141;28;20677;-82
2022/07/15 12:40:52;;;;;;;7.20;0.90;;;24.10;74.70;;;;;;5016073;28;20178;-82
2022/07/15 12:43:17;;;;;;;0.80;0.80;;;23.60;75.90;;;;;;5015048;28;20639;-81
2022/07/15 12:45:43;;;;;;;4.47;0.75;;;23.30;76.20;;;;;;5015880;28;20202;-81
2022/07/15 12:48:14;;;;;;;2.00;0.80;;;22.90;77.00;;;;;;5015406;28;20209;-81
2022/07/15 12:50:43;;;;;;;2.67;0.90;;;23.00;76.10;;;;;;5014804;28;20171;-80
2022/07/15 12:53:09;;;;;;;2.13;0.82;;;23.00;78.10;;;;;;5015542;28;20174;-79
2022/07/15 12:55:42;;;;;;;0.70;0.70;;;23.20;76.50;;;;;;5013370;28;20236;-82
2022/07/15 12:58:09;;;;;;;3.60;0.70;;;23.60;77.40;;;;;;5015401;28;20191;-83
2022/07/15 13:00:36;;;;;;;2.92;0.73;;;24.00;75.80;;;;;;5014343;28;20220;-81